Time;durP1;ratioP1;P1;durP2;ratioP2;P2;SDS_P1;SDS_P2;PMS_P1;PMS_P2;Temp;Humidity;BMP_temperature;BMP_pressure;BME280_temperature;BME280_humidity;BME280_pressure;Samples;Min_cycle;Max_cycle;Signal;HPM_P1;HPM_P2
2022/08/30 00:01:19;;;;;;;20.15;9.38;;;;;;;19.10;70.76;98747.75;5057576;28;20044;-70
2022/08/30 00:03:46;;;;;;;11.52;8.48;;;;;;;19.11;70.31;98747.56;5057338;28;20036;-71
2022/08/30 00:06:13;;;;;;;19.92;8.60;;;;;;;19.12;70.91;98743.00;5061732;28;20047;-70
2022/08/30 00:08:39;;;;;;;18.15;8.70;;;;;;;19.12;70.46;98754.66;5026898;28;20040;-70
2022/08/30 00:11:08;;;;;;;12.75;7.57;;;;;;;19.13;69.71;98739.28;5063026;28;20176;-70
2022/08/30 00:13:34;;;;;;;14.60;8.60;;;;;;;19.14;70.06;98743.66;5040594;28;20044;-69
2022/08/30 00:15:58;;;;;;;15.93;7.95;;;;;;;19.12;70.43;98746.53;5040498;28;20056;-69
2022/08/30 00:18:23;;;;;;;18.00;9.15;;;;;;;19.18;72.36;98737.72;5041279;28;20046;-69
2022/08/30 00:20:49;;;;;;;20.83;9.93;;;;;;;19.22;73.89;98739.00;5060576;28;20410;-75
2022/08/30 00:23:14;;;;;;;20.90;10.02;;;;;;;19.22;75.27;98744.41;5060316;28;20696;-73
2022/08/30 00:25:39;;;;;;;16.70;8.57;;;;;;;19.21;75.82;98750.81;5058102;28;20081;-71
2022/08/30 00:28:05;;;;;;;18.38;10.38;;;;;;;19.20;77.07;98749.16;5057736;28;20702;-71
2022/08/30 00:30:29;;;;;;;20.65;9.30;;;;;;;19.18;77.95;98748.53;5023645;28;20070;-70
2022/08/30 00:32:54;;;;;;;15.63;9.38;;;;;;;19.22;77.57;98736.28;5057323;28;20083;-72
2022/08/30 00:35:21;;;;;;;14.02;9.13;;;;;;;19.25;77.54;98743.19;5056994;28;20047;-70
2022/08/30 00:37:46;;;;;;;15.57;8.75;;;;;;;19.25;77.38;98750.47;5056663;28;20047;-69
2022/08/30 00:40:14;;;;;;;15.32;9.45;;;;;;;19.23;78.39;98745.25;5056970;28;20131;-70
2022/08/30 00:42:39;;;;;;;16.63;9.38;;;;;;;19.19;78.37;98744.75;5056763;28;20043;-71
2022/08/30 00:45:26;;;;;;;17.35;9.50;;;;;;;19.28;78.92;98747.41;5038658;28;20045;-70
2022/08/30 00:47:51;;;;;;;14.48;8.60;;;;;;;19.25;77.99;98740.50;5038549;28;20056;-71
2022/08/30 00:50:20;;;;;;;18.83;10.13;;;;;;;19.24;78.64;98744.22;5056798;28;20071;-70
2022/08/30 00:52:47;;;;;;;17.10;9.80;;;;;;;19.23;78.76;98743.38;5056870;28;20134;-70
2022/08/30 00:55:14;;;;;;;18.02;10.10;;;;;;;19.22;79.02;98733.59;5047485;28;20558;-71
2022/08/30 00:57:42;;;;;;;18.98;10.10;;;;;;;19.23;79.27;98729.03;5037705;28;20058;-70
2022/08/30 01:00:08;;;;;;;17.05;10.05;;;;;;;19.20;79.31;98732.94;5040572;28;20115;-75
2022/08/30 01:02:33;;;;;;;27.00;9.73;;;;;;;19.21;79.04;98737.31;5034953;28;20052;-71
2022/08/30 01:05:01;;;;;;;20.05;9.82;;;;;;;19.20;80.05;98724.81;5045959;28;20143;-68
2022/08/30 01:07:26;;;;;;;16.40;9.25;;;;;;;19.21;79.52;98723.81;5019853;28;20044;-68
2022/08/30 01:09:50;;;;;;;26.50;10.00;;;;;;;19.23;79.86;98731.72;5037683;28;20051;-68
2022/08/30 01:12:15;;;;;;;20.33;9.52;;;;;;;19.21;80.69;98726.50;5002692;28;20453;-69
2022/08/30 01:14:40;;;;;;;17.60;10.57;;;;;;;19.21;81.09;98726.50;5037394;28;20519;-71
2022/08/30 01:17:06;;;;;;;21.35;10.07;;;;;;;19.26;81.02;98728.66;5037719;28;20048;-71
2022/08/30 01:19:40;;;;;;;21.30;10.68;;;;;;;19.30;81.64;98739.94;5037266;28;20047;-71
2022/08/30 01:22:37;;;;;;;17.17;9.43;;;;;;;19.36;81.31;98722.97;5037100;28;20127;-72
2022/08/30 01:25:05;;;;;;;19.63;10.00;;;;;;;19.30;81.19;98731.84;5024959;28;20533;-72
2022/08/30 01:27:31;;;;;;;21.77;10.30;;;;;;;19.28;81.37;98725.78;5037643;28;20044;-75
2022/08/30 01:29:57;;;;;;;17.65;9.82;;;;;;;19.27;81.29;98721.41;5019332;28;20108;-72
2022/08/30 01:32:27;;;;;;;18.70;10.32;;;;;;;19.26;81.46;98723.25;5019501;28;20519;-75
2022/08/30 01:34:52;;;;;;;15.32;9.80;;;;;;;19.25;81.51;98726.16;5002714;28;20574;-77
2022/08/30 01:37:30;;;;;;;19.10;10.27;;;;;;;19.25;81.01;98723.44;5019612;28;20514;-84
2022/08/30 01:39:55;;;;;;;20.27;10.73;;;;;;;19.21;81.31;98729.22;4987779;28;20113;-82
2022/08/30 01:42:21;;;;;;;18.90;9.93;;;;;;;19.19;81.53;98731.25;5020418;28;20044;-85
2022/08/30 01:44:47;;;;;;;21.80;10.35;;;;;;;19.24;81.05;98736.09;5020388;28;20041;-77
2022/08/30 01:47:13;;;;;;;19.58;9.98;;;;;;;19.27;80.41;98733.03;5037383;28;20044;-79
2022/08/30 01:49:39;;;;;;;21.05;11.20;;;;;;;19.28;79.83;98733.88;5037651;28;20044;-79
2022/08/30 01:52:05;;;;;;;18.05;10.75;;;;;;;19.23;80.28;98732.56;5037783;28;20047;-70
2022/08/30 01:54:32;;;;;;;15.98;10.27;;;;;;;19.17;80.80;98724.38;5019623;28;20056;-71
2022/08/30 01:56:57;;;;;;;22.70;10.40;;;;;;;19.11;80.70;98723.25;5032811;28;20041;-71
2022/08/30 01:59:21;;;;;;;25.08;11.20;;;;;;;19.08;80.90;98717.38;5040987;28;20048;-71
2022/08/30 02:01:46;;;;;;;21.75;10.45;;;;;;;19.03;80.92;98726.06;5036251;28;20418;-70
2022/08/30 02:04:13;;;;;;;17.65;10.10;;;;;;;18.99;81.09;98713.09;5001901;28;20040;-71
2022/08/30 02:06:38;;;;;;;19.33;9.60;;;;;;;18.95;81.19;98720.75;5036422;28;20206;-71
2022/08/30 02:09:03;;;;;;;18.00;10.13;;;;;;;18.91;81.35;98714.03;5036484;28;20115;-71
2022/08/30 02:11:28;;;;;;;18.42;10.23;;;;;;;18.87;81.49;98710.00;5036197;28;20070;-70
2022/08/30 02:13:53;;;;;;;20.55;10.07;;;;;;;18.81;81.62;98719.69;5017285;28;20044;-70
2022/08/30 02:16:23;;;;;;;14.45;9.60;;;;;;;18.77;81.76;98733.75;5035930;28;20055;-72
2022/08/30 02:18:49;;;;;;;19.65;10.27;;;;;;;18.72;81.84;98730.78;5036016;28;20040;-76
2022/08/30 02:21:14;;;;;;;27.63;11.10;;;;;;;18.70;81.90;98727.41;5019708;28;20040;-75
2022/08/30 02:23:39;;;;;;;18.40;10.00;;;;;;;18.66;82.43;98732.31;5036856;28;20041;-81
2022/08/30 02:26:04;;;;;;;21.75;10.32;;;;;;;18.61;82.31;98721.25;5037097;28;20044;-76
2022/08/30 02:28:29;;;;;;;18.02;10.18;;;;;;;18.60;82.02;98733.06;5002124;28;20054;-77
2022/08/30 02:30:54;;;;;;;18.85;10.52;;;;;;;18.59;81.63;98730.56;5037376;28;20376;-78
2022/08/30 02:33:19;;;;;;;21.65;11.07;;;;;;;18.60;81.21;98743.88;5036936;28;20098;-80
2022/08/30 02:35:43;;;;;;;24.13;10.80;;;;;;;18.60;81.45;98733.06;5018675;28;20094;-77
2022/08/30 02:38:11;;;;;;;23.48;10.05;;;;;;;18.61;81.30;98740.16;5036631;28;20060;-80
2022/08/30 02:40:36;;;;;;;20.02;10.90;;;;;;;18.60;81.30;98733.06;5017826;28;20408;-78
2022/08/30 02:43:00;;;;;;;21.38;9.43;;;;;;;18.60;81.23;98743.88;5002183;28;20403;-80
2022/08/30 02:45:25;;;;;;;22.67;11.07;;;;;;;18.60;81.01;98743.03;5022885;28;20047;-71
2022/08/30 02:47:50;;;;;;;25.15;10.35;;;;;;;18.60;80.88;98745.72;5043349;28;20457;-70
2022/08/30 02:50:16;;;;;;;25.27;11.02;;;;;;;18.58;81.23;98742.38;5036202;28;20040;-73
2022/08/30 02:52:41;;;;;;;19.65;10.77;;;;;;;18.55;81.13;98745.41;5017264;28;20082;-73
2022/08/30 02:55:07;;;;;;;21.63;10.48;;;;;;;18.58;80.77;98742.38;5017615;28;20071;-73
2022/08/30 02:57:32;;;;;;;22.73;10.35;;;;;;;18.57;81.06;98741.50;5036609;28;20044;-72
2022/08/30 02:59:57;;;;;;;17.00;9.48;;;;;;;18.58;80.65;98745.06;5037042;28;20051;-76
2022/08/30 03:02:22;;;;;;;19.55;10.57;;;;;;;18.58;79.99;98743.22;5036240;28;20044;-74
2022/08/30 03:04:48;;;;;;;22.27;11.48;;;;;;;18.60;79.84;98738.47;5037235;28;20128;-76
2022/08/30 03:07:12;;;;;;;17.90;10.55;;;;;;;18.63;79.49;98743.50;5002523;28;20044;-74
2022/08/30 03:09:38;;;;;;;19.45;11.50;;;;;;;18.68;79.66;98751.06;5018815;28;20050;-75
2022/08/30 03:12:05;;;;;;;26.05;10.57;;;;;;;18.75;79.66;98755.53;5010737;28;20051;-72
2022/08/30 03:14:31;;;;;;;23.77;10.63;;;;;;;18.80;78.43;98746.88;5023891;28;20041;-73
2022/08/30 03:16:55;;;;;;;24.30;10.95;;;;;;;18.88;78.03;98757.59;5011213;28;20047;-73
2022/08/30 03:19:21;;;;;;;17.42;9.55;;;;;;;18.99;77.78;98745.50;5007471;28;20033;-70
2022/08/30 03:21:45;;;;;;;16.20;10.20;;;;;;;19.08;77.54;98750.63;5015938;28;20048;-70
2022/08/30 03:24:12;;;;;;;21.60;10.65;;;;;;;19.16;76.85;98750.56;5007235;28;20035;-70
2022/08/30 03:26:37;;;;;;;20.27;10.27;;;;;;;19.26;76.79;98744.03;5016420;28;20049;-70
2022/08/30 03:29:01;;;;;;;20.00;9.93;;;;;;;19.36;76.49;98744.59;5016249;28;20051;-68
2022/08/30 03:31:26;;;;;;;24.08;11.38;;;;;;;19.42;75.94;98750.06;4997834;28;20045;-69
2022/08/30 03:33:51;;;;;;;17.70;10.18;;;;;;;19.53;75.68;98754.19;5015698;28;20072;-69
2022/08/30 03:36:16;;;;;;;21.00;10.80;;;;;;;19.66;75.21;98767.03;5016116;28;20044;-71
2022/08/30 03:38:41;;;;;;;21.38;10.82;;;;;;;19.76;74.55;98754.91;4997819;28;20036;-70
2022/08/30 03:41:06;;;;;;;23.10;10.40;;;;;;;19.86;74.29;98763.56;5015803;28;20066;-70
2022/08/30 03:43:32;;;;;;;16.77;9.82;;;;;;;19.93;73.62;98764.50;5015739;28;20032;-70
2022/08/30 03:45:57;;;;;;;22.98;10.20;;;;;;;20.05;73.20;98767.53;5015105;28;20049;-71
2022/08/30 03:48:21;;;;;;;14.63;9.50;;;;;;;20.17;72.83;98760.59;5015335;28;20048;-70
2022/08/30 03:50:46;;;;;;;18.02;11.18;;;;;;;20.24;72.04;98763.34;5015243;28;20044;-70
2022/08/30 03:53:11;;;;;;;17.85;10.45;;;;;;;20.28;71.85;98767.38;4997547;28;20582;-69
2022/08/30 03:55:36;;;;;;;24.67;11.60;;;;;;;20.33;71.49;98769.47;5015739;28;20600;-68
2022/08/30 03:58:00;;;;;;;19.30;10.68;;;;;;;20.33;71.56;98762.19;5021901;28;20045;-72
2022/08/30 04:00:25;;;;;;;15.75;10.02;;;;;;;20.34;71.53;98763.88;5021468;28;20045;-73
2022/08/30 04:02:50;;;;;;;15.45;10.18;;;;;;;20.40;71.34;98762.31;5019516;28;20049;-73
2022/08/30 04:05:15;;;;;;;13.98;9.88;;;;;;;20.49;71.25;98759.25;5000950;28;20048;-73
2022/08/30 04:07:39;;;;;;;16.67;9.18;;;;;;;20.59;70.80;98770.59;5016707;28;20411;-71
2022/08/30 04:10:06;;;;;;;21.55;10.40;;;;;;;20.66;70.63;98768.78;5000091;28;20406;-72
2022/08/30 04:12:30;;;;;;;14.38;10.15;;;;;;;20.72;70.22;98769.03;5018991;28;20057;-71
2022/08/30 04:14:55;;;;;;;17.48;9.98;;;;;;;20.77;69.91;98756.56;4997658;28;20033;-72
2022/08/30 04:17:20;;;;;;;15.57;10.27;;;;;;;20.78;68.91;98757.41;5015605;28;20078;-73
2022/08/30 04:19:45;;;;;;;21.80;11.15;;;;;;;20.75;67.77;98769.50;5016614;28;20045;-73
2022/08/30 04:22:09;;;;;;;22.98;10.75;;;;;;;20.69;67.34;98772.97;5007415;28;20064;-73
2022/08/30 04:24:34;;;;;;;22.75;11.80;;;;;;;20.74;66.35;98766.97;5022486;28;20078;-71
2022/08/30 04:27:00;;;;;;;17.30;10.65;;;;;;;20.84;65.82;98776.44;5015134;28;20514;-71
2022/08/30 04:29:25;;;;;;;23.42;12.32;;;;;;;20.87;66.28;98769.81;5014773;28;20120;-70
2022/08/30 04:31:49;;;;;;;24.45;11.05;;;;;;;21.04;65.53;98768.47;4997027;28;20191;-71
2022/08/30 04:34:14;;;;;;;20.83;11.60;;;;;;;21.11;65.53;98763.06;5015216;28;20041;-71
2022/08/30 04:36:39;;;;;;;20.70;11.23;;;;;;;21.27;64.71;98773.66;4982300;28;20048;-69
2022/08/30 04:39:04;;;;;;;23.77;11.27;;;;;;;21.42;63.98;98762.69;5020232;28;20048;-70
2022/08/30 04:41:29;;;;;;;19.27;11.60;;;;;;;21.61;63.66;98776.34;5021207;28;20826;-70
2022/08/30 04:43:54;;;;;;;22.77;11.85;;;;;;;21.68;64.07;98771.78;5020080;28;20511;-72
2022/08/30 04:46:19;;;;;;;21.40;11.05;;;;;;;21.85;63.25;98774.16;5003075;28;20069;-69
2022/08/30 04:48:45;;;;;;;23.33;11.95;;;;;;;22.00;62.72;98772.16;5022034;28;20106;-71
2022/08/30 04:51:13;;;;;;;22.83;12.63;;;;;;;22.15;61.67;98775.53;5018516;28;20041;-73
2022/08/30 04:53:37;;;;;;;19.38;12.07;;;;;;;22.21;61.38;98768.47;4999589;28;20048;-72
2022/08/30 04:56:07;;;;;;;21.08;11.32;;;;;;;22.26;61.48;98764.09;5018521;28;20050;-72
2022/08/30 04:58:32;;;;;;;25.25;12.50;;;;;;;22.28;60.87;98759.28;5018349;28;20147;-73
2022/08/30 05:00:57;;;;;;;22.75;11.55;;;;;;;22.35;60.69;98764.72;5018091;28;20044;-72
2022/08/30 05:03:22;;;;;;;19.77;12.15;;;;;;;22.41;60.67;98755.75;5017811;28;20040;-74
2022/08/30 05:05:49;;;;;;;26.25;13.02;;;;;;;22.55;59.95;98762.88;5000101;28;20049;-73
2022/08/30 05:08:17;;;;;;;18.42;12.13;;;;;;;22.65;60.25;98765.19;5017782;28;20547;-74
2022/08/30 05:10:45;;;;;;;23.25;12.70;;;;;;;22.81;60.16;98760.19;5000359;28;20102;-72
2022/08/30 05:13:11;;;;;;;23.42;13.13;;;;;;;23.10;58.70;98764.38;5018277;28;20033;-72
2022/08/30 05:15:38;;;;;;;20.25;12.38;;;;;;;23.41;58.93;98769.13;5018125;28;20499;-72
2022/08/30 05:18:03;;;;;;;18.98;12.15;;;;;;;23.74;59.04;98769.03;5000231;28;20041;-72
2022/08/30 05:20:28;;;;;;;27.35;13.27;;;;;;;24.06;59.30;98771.81;5000270;28;20063;-72
2022/08/30 05:22:53;;;;;;;21.60;12.25;;;;;;;24.30;59.06;98775.72;5017619;28;20534;-72
2022/08/30 05:25:21;;;;;;;22.15;13.73;;;;;;;24.61;58.99;98782.00;5017675;28;20150;-73
2022/08/30 05:27:46;;;;;;;23.20;13.98;;;;;;;24.80;59.83;98780.19;5023685;28;20073;-70
2022/08/30 05:30:16;;;;;;;23.75;14.00;;;;;;;25.00;59.73;98781.94;5022688;28;20037;-70
2022/08/30 05:32:41;;;;;;;21.00;14.18;;;;;;;25.35;58.57;98783.09;5025328;28;20040;-70
2022/08/30 05:35:09;;;;;;;25.52;13.93;;;;;;;25.66;57.18;98856.69;5023054;28;20048;-71
2022/08/30 05:37:34;;;;;;;23.13;13.20;;;;;;;25.82;56.90;98775.25;5018624;28;20041;-70
2022/08/30 05:39:59;;;;;;;22.77;12.77;;;;;;;25.97;55.76;98781.13;5000980;28;20137;-70
2022/08/30 05:42:24;;;;;;;24.73;13.00;;;;;;;26.27;55.06;98776.56;5001139;28;20103;-71
2022/08/30 05:44:51;;;;;;;21.33;14.35;;;;;;;26.73;54.41;98786.00;5025789;28;20442;-69
2022/08/30 05:47:16;;;;;;;19.27;13.98;;;;;;;27.25;52.13;98775.25;5011768;28;20040;-70
2022/08/30 05:49:41;;;;;;;24.73;13.43;;;;;;;28.00;51.63;98780.75;5019864;28;20098;-70
2022/08/30 05:52:05;;;;;;;20.80;13.30;;;;;;;28.74;47.68;98779.75;5017000;28;20412;-70
2022/08/30 05:54:30;;;;;;;20.23;13.32;;;;;;;29.41;45.35;98782.53;5016853;28;20542;-72
2022/08/30 05:56:55;;;;;;;19.52;12.57;;;;;;;30.21;43.99;98792.13;4998660;28;20052;-72
2022/08/30 05:59:21;;;;;;;24.42;14.30;;;;;;;31.08;41.28;98793.81;5016320;28;20052;-70
2022/08/30 06:01:46;;;;;;;22.25;13.90;;;;;;;31.83;39.47;98784.47;4998903;28;20045;-71
2022/08/30 06:04:12;;;;;;;22.17;13.80;;;;;;;32.41;37.45;98789.66;4998916;28;20036;-70
2022/08/30 06:06:39;;;;;;;24.80;15.43;;;;;;;32.96;36.22;98796.41;4998643;28;20056;-70
2022/08/30 06:09:06;;;;;;;20.92;13.98;;;;;;;33.57;34.69;98795.56;5016011;28;20047;-70
2022/08/30 06:11:31;;;;;;;21.90;13.73;;;;;;;34.19;33.76;98787.63;5016203;28;20044;-71
2022/08/30 06:13:57;;;;;;;21.77;14.75;;;;;;;34.78;33.03;98803.38;5016205;28;20128;-71
2022/08/30 06:16:25;;;;;;;22.35;13.55;;;;;;;35.10;31.52;98794.56;5016247;28;20491;-71
2022/08/30 06:18:51;;;;;;;25.35;14.30;;;;;;;35.44;30.99;98802.06;4998371;28;20045;-72
2022/08/30 06:21:20;;;;;;;24.75;14.85;;;;;;;35.85;30.25;98863.50;4998266;28;20155;-71
2022/08/30 06:23:46;;;;;;;22.88;13.70;;;;;;;36.26;29.73;98861.09;5016661;28;20521;-73
2022/08/30 06:26:10;;;;;;;21.58;15.07;;;;;;;36.77;29.13;98805.75;4999241;28;20500;-72
2022/08/30 06:28:35;;;;;;;21.00;14.00;;;;;;;37.35;28.63;98803.44;5017009;28;20041;-70
2022/08/30 06:31:01;;;;;;;21.20;14.10;;;;;;;37.56;28.13;98803.88;4982758;28;20123;-71
2022/08/30 06:33:26;;;;;;;24.35;15.07;;;;;;;37.87;27.80;98809.69;5006273;28;20033;-72
2022/08/30 06:35:51;;;;;;;21.85;14.82;;;;;;;38.39;26.87;98805.56;4999361;28;20052;-71
2022/08/30 06:38:16;;;;;;;17.58;13.40;;;;;;;39.00;25.72;98814.53;4997983;28;20407;-72
2022/08/30 06:40:41;;;;;;;19.20;14.23;;;;;;;39.53;25.29;98807.03;5015842;28;20206;-71
2022/08/30 06:43:05;;;;;;;26.25;14.38;;;;;;;39.81;24.66;98801.28;4998160;28;20127;-72
2022/08/30 06:45:30;;;;;;;21.02;14.43;;;;;;;40.02;24.48;98807.13;5015923;28;20048;-73
2022/08/30 06:47:55;;;;;;;27.23;15.00;;;;;;;39.98;24.42;98806.13;5023575;28;20044;-72
2022/08/30 06:50:20;;;;;;;21.73;14.00;;;;;;;40.00;24.55;98803.84;5033866;28;20104;-74
2022/08/30 06:52:45;;;;;;;28.35;16.52;;;;;;;40.06;24.67;98802.56;4982445;28;20527;-72
2022/08/30 06:55:12;;;;;;;21.90;13.98;;;;;;;40.47;23.63;98804.97;5011564;28;20106;-72
2022/08/30 06:57:37;;;;;;;22.55;13.75;;;;;;;40.73;23.04;98800.28;5035803;28;20147;-72
2022/08/30 07:00:05;;;;;;;18.17;13.15;;;;;;;40.02;23.55;98801.53;5018333;28;20119;-71
2022/08/30 07:02:30;;;;;;;19.38;14.25;;;;;;;38.83;25.17;98792.88;5036051;28;20127;-72
2022/08/30 07:04:54;;;;;;;20.15;14.93;;;;;;;37.28;27.41;98791.03;5018006;28;20135;-70
2022/08/30 07:07:19;;;;;;;22.00;14.23;;;;;;;35.73;29.59;98794.53;5018158;28;20459;-71
2022/08/30 07:09:44;;;;;;;19.83;14.18;;;;;;;34.59;31.23;98794.91;5036199;28;20040;-72
2022/08/30 07:12:11;;;;;;;23.65;14.80;;;;;;;33.25;33.41;98790.34;4985167;28;20040;-71
2022/08/30 07:14:36;;;;;;;25.48;14.77;;;;;;;32.02;34.89;98792.00;5035840;28;20036;-72
2022/08/30 07:17:01;;;;;;;21.60;14.48;;;;;;;31.19;36.92;98790.09;5035852;28;20044;-71
2022/08/30 07:19:26;;;;;;;23.88;15.63;;;;;;;30.94;38.32;98798.94;5035715;28;20052;-71
2022/08/30 07:21:50;;;;;;;24.38;13.93;;;;;;;31.16;37.94;98794.19;5017741;28;20041;-70
2022/08/30 07:24:16;;;;;;;26.15;14.20;;;;;;;31.80;36.04;98794.09;5035510;28;20415;-72
2022/08/30 07:26:45;;;;;;;24.30;15.73;;;;;;;32.13;35.11;98795.63;5035648;28;20887;-70
2022/08/30 07:29:10;;;;;;;20.63;14.25;;;;;;;32.28;35.63;98798.44;5034908;28;20044;-72
2022/08/30 07:31:36;;;;;;;20.50;14.93;;;;;;;32.55;35.74;98802.94;5035959;28;20132;-72
2022/08/30 07:34:03;;;;;;;23.17;15.43;;;;;;;32.85;34.30;98802.19;5035033;28;20493;-72
2022/08/30 07:36:28;;;;;;;29.42;14.25;;;;;;;33.05;33.41;98793.94;5035027;28;20044;-71
2022/08/30 07:38:53;;;;;;;22.52;15.10;;;;;;;33.21;34.11;98803.03;5035002;28;20044;-72
2022/08/30 07:41:28;;;;;;;23.05;14.05;;;;;;;34.19;33.00;98804.25;5034672;28;20124;-72
2022/08/30 07:43:53;;;;;;;22.80;14.40;;;;;;;34.54;31.53;98803.22;5017128;28;20033;-73
2022/08/30 07:46:19;;;;;;;26.90;16.95;;;;;;;33.80;32.59;98804.09;5017076;28;20436;-73
2022/08/30 07:48:44;;;;;;;22.05;14.20;;;;;;;33.20;33.65;98807.72;5035297;28;20485;-73
2022/08/30 07:51:18;;;;;;;27.25;14.15;;;;;;;33.24;33.88;98810.81;5035466;28;20408;-72
2022/08/30 07:53:44;;;;;;;20.55;15.02;;;;;;;33.41;32.92;98792.00;5014909;28;20043;-72
2022/08/30 07:56:09;;;;;;;22.27;14.93;;;;;;;34.10;31.64;98802.31;5014958;28;20529;-73
2022/08/30 07:58:36;;;;;;;25.90;13.93;;;;;;;34.81;31.73;98797.28;5014886;28;20053;-72
2022/08/30 08:01:01;;;;;;;19.20;14.35;;;;;;;35.95;29.70;98802.34;5015079;28;20079;-73
2022/08/30 08:03:25;;;;;;;21.05;13.82;;;;;;;37.24;27.95;98806.69;4997677;28;20067;-72
2022/08/30 08:05:52;;;;;;;20.98;15.27;;;;;;;38.20;26.25;98804.06;4997233;28;20045;-73
2022/08/30 08:08:16;;;;;;;21.13;14.25;;;;;;;39.00;24.94;98804.22;5015225;28;20097;-72
2022/08/30 08:10:41;;;;;;;22.35;15.23;;;;;;;38.55;24.93;98803.31;5015103;28;20124;-73
2022/08/30 08:13:06;;;;;;;17.88;13.15;;;;;;;37.92;26.00;98800.44;5018069;28;20159;-73
2022/08/30 08:15:31;;;;;;;21.77;13.60;;;;;;;37.51;25.84;98800.34;5001081;28;20195;-73
2022/08/30 08:17:56;;;;;;;22.15;14.55;;;;;;;36.94;26.74;98802.41;5018695;28;20040;-74
2022/08/30 08:20:22;;;;;;;21.77;14.25;;;;;;;36.93;26.60;98809.09;5018634;28;20163;-72
2022/08/30 08:22:47;;;;;;;17.05;14.13;;;;;;;36.99;26.84;98805.94;5018322;28;20109;-72
2022/08/30 08:25:13;;;;;;;19.63;14.32;;;;;;;37.29;27.13;98803.81;5018427;28;20175;-72
2022/08/30 08:27:38;;;;;;;17.52;14.45;;;;;;;37.99;26.40;98796.09;5018682;28;20041;-72
2022/08/30 08:30:04;;;;;;;21.38;13.70;;;;;;;39.07;25.44;98807.38;5001092;28;20717;-72
2022/08/30 08:32:28;;;;;;;28.65;15.02;;;;;;;40.67;23.51;98809.09;5001614;28;20056;-71
2022/08/30 08:34:54;;;;;;;26.13;15.60;;;;;;;42.16;21.36;98810.19;5026191;28;20041;-72
2022/08/30 08:37:20;;;;;;;19.40;16.48;;;;;;;43.48;20.15;98802.91;5019962;28;20114;-72
2022/08/30 08:39:44;;;;;;;17.73;15.75;;;;;;;44.50;18.85;98813.22;5000703;28;20124;-72
2022/08/30 08:42:22;;;;;;;24.75;17.25;;;;;;;44.94;18.27;98813.38;5000588;28;20131;-73
2022/08/30 08:45:01;;;;;;;25.02;17.17;;;;;;;44.85;18.44;98816.34;5028670;28;20067;-71
2022/08/30 08:47:47;;;;;;;25.38;17.73;;;;;;;44.57;18.65;98807.03;5009491;28;20496;-72
2022/08/30 08:50:19;;;;;;;22.33;17.83;;;;;;;43.65;19.49;98818.78;5018037;28;20095;-72
2022/08/30 08:55:30;;;;;;;25.38;17.98;;;;;;;44.29;18.43;98806.91;5018553;28;20515;-73
2022/08/30 08:57:56;;;;;;;24.52;18.38;;;;;;;44.65;17.71;98806.06;5018559;28;20052;-71
2022/08/30 09:00:21;;;;;;;26.17;19.40;;;;;;;45.35;17.21;98810.19;5000534;28;20032;-71
2022/08/30 09:02:52;;;;;;;25.92;19.60;;;;;;;45.60;16.92;98813.72;5018224;28;20051;-74
2022/08/30 09:05:20;;;;;;;27.70;20.25;;;;;;;46.33;16.64;98806.72;5018141;28;20080;-73
2022/08/30 09:07:55;;;;;;;26.35;20.65;;;;;;;47.36;15.67;98815.47;5000130;28;20044;-74
2022/08/30 09:10:21;;;;;;;23.83;21.35;;;;;;;48.09;15.18;98819.25;5017781;28;20051;-73
2022/08/30 09:12:45;;;;;;;27.88;25.02;;;;;;;47.81;14.71;98813.94;5017968;28;20045;-74
2022/08/30 09:15:25;;;;;;;28.60;25.58;;;;;;;46.73;15.49;98807.31;5017795;28;20473;-73
2022/08/30 09:17:57;;;;;;;28.35;24.60;;;;;;;46.48;16.19;98809.53;4983890;28;20045;-73
2022/08/30 09:20:32;;;;;;;31.13;22.92;;;;;;;46.83;16.08;98820.00;5018051;28;20051;-73
2022/08/30 09:22:58;;;;;;;28.13;22.10;;;;;;;46.41;16.10;98809.34;5017570;28;20103;-76
2022/08/30 09:25:26;;;;;;;29.63;24.10;;;;;;;45.43;16.48;98809.19;5018624;28;20044;-74
2022/08/30 09:27:53;;;;;;;27.35;24.45;;;;;;;44.45;17.82;98805.88;5018467;28;20045;-73
2022/08/30 09:30:22;;;;;;;26.15;22.85;;;;;;;43.69;17.95;98802.88;5017236;28;20407;-72
2022/08/30 09:32:54;;;;;;;25.10;22.58;;;;;;;43.52;18.92;98805.84;4999915;28;20057;-73
2022/08/30 09:35:34;;;;;;;23.73;21.23;;;;;;;43.41;18.58;98802.69;5018171;28;20053;-73
2022/08/30 09:38:06;;;;;;;30.05;23.23;;;;;;;43.94;18.21;98810.16;4999688;28;20071;-72
2022/08/30 09:40:37;;;;;;;24.48;22.08;;;;;;;44.47;17.59;98808.34;5017614;28;20037;-72
2022/08/30 09:43:20;;;;;;;27.75;23.38;;;;;;;44.65;17.69;98808.88;5017266;28;20052;-72
2022/08/30 09:45:48;;;;;;;27.17;22.38;;;;;;;43.66;18.25;98804.41;5017010;28;20051;-72
2022/08/30 09:48:37;;;;;;;27.60;24.75;;;;;;;42.10;19.86;98798.38;4998954;28;20043;-71
2022/08/30 09:51:13;;;;;;;27.33;22.45;;;;;;;41.06;21.29;98791.38;5016998;28;20055;-71
2022/08/30 09:53:57;;;;;;;31.23;22.08;;;;;;;40.47;21.20;98794.63;5016410;28;20044;-72
2022/08/30 09:56:33;;;;;;;30.58;22.88;;;;;;;40.07;21.24;98787.44;5016783;28;20053;-73
2022/08/30 09:59:45;;;;;;;28.88;22.52;;;;;;;39.79;21.64;98801.59;4999050;28;20526;-71
2022/08/30 10:02:24;;;;;;;26.40;20.33;;;;;;;39.50;22.89;98796.53;4942168;28;20539;-72
2022/08/30 10:05:14;;;;;;;26.65;20.95;;;;;;;39.86;22.31;98795.56;4969485;28;20054;-74
2022/08/30 10:07:51;;;;;;;30.25;21.38;;;;;;;39.76;22.18;98790.25;4955533;28;20062;-72
2022/08/30 10:10:24;;;;;;;27.83;20.30;;;;;;;39.77;21.98;98795.50;4955482;28;20100;-71
2022/08/30 10:13:19;;;;;;;26.85;20.35;;;;;;;39.29;22.50;98800.13;4967172;28;20045;-71
2022/08/30 10:16:19;;;;;;;27.20;20.23;;;;;;;38.47;23.21;98790.09;4957934;28;20046;-72
2022/08/30 10:19:19;;;;;;;23.83;19.85;;;;;;;36.90;24.93;98795.81;4910090;28;20418;-73
2022/08/30 10:21:48;;;;;;;24.95;19.40;;;;;;;35.53;26.45;98784.50;4936056;28;20406;-71
2022/08/30 10:24:17;;;;;;;23.13;19.58;;;;;;;34.86;27.48;98779.81;4935884;28;20053;-72
2022/08/30 10:27:01;;;;;;;28.52;19.83;;;;;;;34.83;27.82;98785.91;4933955;28;20038;-71
2022/08/30 10:29:42;;;;;;;30.02;20.98;;;;;;;34.43;28.43;98787.78;4913205;28;20051;-71
2022/08/30 10:32:29;;;;;;;25.23;19.38;;;;;;;34.33;28.47;98778.72;4926353;28;20084;-70
2022/08/30 10:35:01;;;;;;;24.27;18.33;;;;;;;33.97;28.82;98795.50;4934646;28;20054;-71
2022/08/30 10:37:33;;;;;;;24.90;19.42;;;;;;;33.45;29.93;98780.09;4938659;28;20050;-71
2022/08/30 10:41:11;;;;;;;30.45;19.52;;;;;;;32.76;31.30;98777.91;4945362;28;20053;-71
2022/08/30 10:42:51;;;;;;;32.22;19.42;;;;;;;32.33;31.51;98786.63;4987314;28;20048;-72
2022/08/30 10:45:17;;;;;;;27.77;19.52;;;;;;;32.05;32.44;98777.69;4985628;28;20037;-71
2022/08/30 10:48:08;;;;;;;27.75;19.30;;;;;;;32.05;33.78;98779.63;4985157;28;20042;-71
2022/08/30 10:50:43;;;;;;;25.80;19.85;;;;;;;32.03;32.77;98776.28;4984893;28;20046;-71
2022/08/30 10:53:14;;;;;;;26.55;17.70;;;;;;;31.98;32.33;98777.09;4973861;28;20084;-71
2022/08/30 10:55:48;;;;;;;27.85;19.10;;;;;;;32.03;32.22;98776.28;5032559;28;20395;-72
2022/08/30 10:58:15;;;;;;;28.27;20.15;;;;;;;32.10;31.82;98774.94;5047558;28;20457;-73
2022/08/30 11:00:53;;;;;;;30.92;18.88;;;;;;;32.15;32.27;98774.13;5055373;28;20387;-78
2022/08/30 11:03:35;;;;;;;29.33;18.60;;;;;;;32.02;32.07;98775.47;5040325;28;20188;-75
2022/08/30 11:06:00;;;;;;;27.52;18.40;;;;;;;31.51;32.92;98770.75;5039548;28;20076;-75
2022/08/30 11:08:31;;;;;;;31.73;19.00;;;;;;;30.83;34.05;98776.00;5042721;28;20070;-76
2022/08/30 11:11:18;;;;;;;32.88;19.95;;;;;;;30.13;34.47;98779.69;5056392;28;20031;-77
2022/08/30 11:13:44;;;;;;;26.02;18.17;;;;;;;29.80;35.59;98779.75;5055707;28;20402;-76
2022/08/30 11:16:15;;;;;;;27.25;18.25;;;;;;;29.69;36.13;98773.28;5037978;28;20461;-73
2022/08/30 11:18:56;;;;;;;23.48;17.40;;;;;;;29.49;36.44;98762.03;5020926;28;20044;-72
2022/08/30 11:21:36;;;;;;;28.13;18.52;;;;;;;29.67;36.11;98764.50;5056373;28;20375;-71
2022/08/30 11:24:08;;;;;;;28.42;18.75;;;;;;;29.60;35.85;98766.56;5021176;28;20051;-70
2022/08/30 11:26:49;;;;;;;30.03;18.03;;;;;;;29.54;36.08;98759.38;5056321;28;20097;-72